Time;durP1;ratioP1;P1;durP2;ratioP2;P2;SDS_P1;SDS_P2;PMS_P1;PMS_P2;Temp;Humidity;BMP_temperature;BMP_pressure;BME280_temperature;BME280_humidity;BME280_pressure;Samples;Min_cycle;Max_cycle;Signal;HPM_P1;HPM_P2
2023/10/08 00:02:26;;;;;;;4.70;3.27;;;14.10;99.90;;;;;;5069964;28;20216;-55
2023/10/08 00:04:54;;;;;;;5.83;3.13;;;14.10;99.90;;;;;;5061976;28;20197;-56
2023/10/08 00:07:21;;;;;;;4.87;3.20;;;14.20;99.90;;;;;;5062227;28;20210;-56
2023/10/08 00:09:52;;;;;;;6.27;3.10;;;14.10;99.90;;;;;;5064733;28;20728;-57
2023/10/08 00:12:20;;;;;;;5.40;3.30;;;14.20;99.90;;;;;;5064484;28;20729;-56
2023/10/08 00:14:49;;;;;;;5.53;3.27;;;14.30;99.90;;;;;;5061632;28;20292;-56
2023/10/08 00:17:16;;;;;;;5.93;3.27;;;14.30;99.90;;;;;;5061736;28;20214;-56
2023/10/08 00:19:43;;;;;;;6.73;3.20;;;14.30;99.90;;;;;;5065037;28;20297;-55
2023/10/08 00:22:12;;;;;;;4.13;2.67;;;14.30;99.90;;;;;;5066041;28;20312;-57
2023/10/08 00:24:41;;;;;;;5.53;2.80;;;14.30;99.90;;;;;;5064466;28;20204;-56
2023/10/08 00:27:09;;;;;;;5.87;3.20;;;14.30;99.90;;;;;;5064738;28;20583;-57
2023/10/08 00:29:39;;;;;;;7.33;2.90;;;14.30;99.90;;;;;;5062220;28;20205;-55
2023/10/08 00:32:12;;;;;;;4.70;3.10;;;14.30;99.90;;;;;;5061453;28;20209;-56
2023/10/08 00:34:41;;;;;;;4.87;2.70;;;14.30;99.90;;;;;;5064277;28;20217;-56
2023/10/08 00:37:09;;;;;;;5.70;3.07;;;14.20;99.90;;;;;;5064521;28;20258;-56
2023/10/08 00:39:37;;;;;;;5.93;3.17;;;14.10;99.90;;;;;;5061783;28;20233;-57
2023/10/08 00:42:07;;;;;;;5.63;3.20;;;14.10;99.90;;;;;;5061098;28;20213;-56
2023/10/08 00:44:41;;;;;;;5.77;3.67;;;14.10;99.90;;;;;;5063526;28;20301;-56
2023/10/08 00:47:11;;;;;;;5.20;3.20;;;14.10;99.90;;;;;;5064840;28;20232;-56
2023/10/08 00:49:54;;;;;;;4.47;2.83;;;14.00;99.90;;;;;;5061362;28;20205;-56
2023/10/08 00:52:29;;;;;;;4.97;2.83;;;13.90;99.90;;;;;;5061306;28;20229;-56
2023/10/08 00:55:07;;;;;;;7.13;2.97;;;13.90;99.90;;;;;;5063328;28;20208;-55
2023/10/08 00:57:36;;;;;;;6.10;2.97;;;13.90;99.90;;;;;;5062026;28;20219;-58
2023/10/08 01:00:14;;;;;;;5.00;3.13;;;13.90;99.90;;;;;;5060794;28;20316;-55
2023/10/08 01:02:46;;;;;;;7.23;3.03;;;13.90;99.90;;;;;;5072424;28;20209;-56
2023/10/08 01:05:15;;;;;;;4.77;2.80;;;13.90;99.90;;;;;;5064242;28;20216;-57
2023/10/08 01:07:45;;;;;;;5.83;2.90;;;13.90;99.90;;;;;;5060797;28;20280;-58
2023/10/08 01:10:19;;;;;;;6.67;2.80;;;13.90;99.90;;;;;;5068329;28;20235;-56
2023/10/08 01:12:54;;;;;;;4.30;2.90;;;13.90;99.90;;;;;;5056018;28;20731;-56
2023/10/08 01:15:28;;;;;;;6.40;2.90;;;14.00;99.90;;;;;;5063626;28;20465;-56
2023/10/08 01:18:00;;;;;;;6.97;3.13;;;14.00;99.90;;;;;;5065779;28;20197;-56
2023/10/08 01:20:34;;;;;;;6.37;2.93;;;13.90;99.90;;;;;;5062591;28;20229;-56
2023/10/08 01:23:09;;;;;;;6.00;2.80;;;13.90;99.90;;;;;;5066108;28;20678;-56
2023/10/08 01:25:37;;;;;;;5.63;2.83;;;13.90;99.90;;;;;;5060823;28;20561;-56
2023/10/08 01:28:09;;;;;;;4.80;2.50;;;13.90;99.90;;;;;;5060095;28;20209;-56
2023/10/08 01:30:41;;;;;;;3.93;2.43;;;13.90;99.90;;;;;;5068363;28;20304;-58
2023/10/08 01:33:11;;;;;;;3.93;2.87;;;13.90;99.90;;;;;;5067154;28;20200;-57
2023/10/08 01:35:38;;;;;;;7.90;3.10;;;13.90;99.90;;;;;;5060736;28;20220;-57
2023/10/08 01:38:13;;;;;;;5.93;3.03;;;14.00;99.90;;;;;;5059809;28;20201;-56
2023/10/08 01:40:43;;;;;;;5.13;2.83;;;14.00;99.90;;;;;;5068218;28;20672;-56
2023/10/08 01:43:10;;;;;;;5.83;3.33;;;14.00;99.90;;;;;;5060398;28;20206;-56
2023/10/08 01:45:42;;;;;;;5.03;2.50;;;14.00;99.90;;;;;;5062505;28;20212;-56
2023/10/08 01:48:10;;;;;;;5.90;3.03;;;14.00;99.90;;;;;;5063248;28;20674;-56
2023/10/08 01:50:37;;;;;;;4.83;2.77;;;13.90;99.90;;;;;;5061010;28;20686;-59
2023/10/08 01:53:09;;;;;;;5.60;2.77;;;13.90;99.90;;;;;;5059825;28;20205;-59
2023/10/08 01:55:48;;;;;;;4.10;2.90;;;13.90;99.90;;;;;;5068038;28;20216;-59
2023/10/08 01:58:17;;;;;;;4.83;2.90;;;13.80;99.90;;;;;;5067291;28;20208;-59
2023/10/08 02:00:45;;;;;;;6.13;3.00;;;13.70;99.90;;;;;;5062774;28;20270;-58
2023/10/08 02:03:15;;;;;;;6.43;3.03;;;13.60;99.90;;;;;;5063564;28;20201;-59
2023/10/08 02:05:42;;;;;;;4.90;2.73;;;13.50;99.90;;;;;;5059769;28;20375;-60
2023/10/08 02:08:11;;;;;;;6.10;3.40;;;13.40;99.90;;;;;;5059397;28;20202;-56
2023/10/08 02:10:39;;;;;;;5.67;3.43;;;13.30;99.90;;;;;;5061852;28;20222;-60
2023/10/08 02:13:08;;;;;;;4.90;2.67;;;13.20;99.90;;;;;;5062919;28;20208;-59
2023/10/08 02:15:35;;;;;;;7.23;3.23;;;13.10;99.90;;;;;;5060353;28;20209;-57
2023/10/08 02:18:03;;;;;;;6.10;2.60;;;13.10;99.90;;;;;;5059521;28;20205;-59
2023/10/08 02:20:29;;;;;;;6.93;3.10;;;13.00;99.90;;;;;;5060897;28;20637;-59
2023/10/08 02:22:56;;;;;;;5.47;2.93;;;13.00;99.90;;;;;;5063051;28;20205;-59
2023/10/08 02:25:24;;;;;;;6.27;2.80;;;12.90;99.90;;;;;;5062324;28;20209;-58
2023/10/08 02:27:51;;;;;;;4.67;3.00;;;12.90;99.90;;;;;;5059374;28;20202;-59
2023/10/08 02:30:18;;;;;;;6.57;3.07;;;12.80;99.90;;;;;;5059435;28;20225;-59
2023/10/08 02:32:46;;;;;;;4.70;2.87;;;12.80;99.90;;;;;;5067291;28;20240;-57
2023/10/08 02:35:13;;;;;;;7.23;3.10;;;12.80;99.90;;;;;;5059459;28;20206;-58
2023/10/08 02:37:41;;;;;;;6.03;2.80;;;12.70;99.90;;;;;;5061516;28;20232;-58
2023/10/08 02:40:19;;;;;;;5.73;3.00;;;12.70;99.90;;;;;;5062468;28;20235;-58
2023/10/08 02:42:48;;;;;;;4.03;2.70;;;12.70;99.90;;;;;;5066954;28;20205;-58
2023/10/08 02:45:16;;;;;;;6.83;3.17;;;12.70;99.90;;;;;;5058919;28;20213;-57
2023/10/08 02:47:45;;;;;;;6.60;3.10;;;12.60;99.90;;;;;;5058556;28;20295;-58
2023/10/08 02:50:16;;;;;;;4.40;2.90;;;12.60;99.90;;;;;;5058725;28;20233;-59
2023/10/08 02:52:45;;;;;;;6.47;3.03;;;12.60;99.90;;;;;;5061816;28;20205;-59
2023/10/08 02:55:23;;;;;;;5.87;2.93;;;12.50;99.90;;;;;;5062236;28;20694;-59
2023/10/08 02:57:51;;;;;;;4.50;2.80;;;12.50;99.90;;;;;;5054745;28;20204;-59
2023/10/08 03:00:20;;;;;;;7.97;3.20;;;12.50;99.90;;;;;;5062141;28;20228;-59
2023/10/08 03:02:47;;;;;;;4.30;2.80;;;12.50;99.90;;;;;;5067040;28;20205;-60
2023/10/08 03:05:16;;;;;;;5.60;3.13;;;12.50;99.90;;;;;;5059219;28;20205;-58
2023/10/08 03:07:43;;;;;;;4.67;2.90;;;12.40;99.90;;;;;;5061396;28;20203;-59
2023/10/08 03:10:18;;;;;;;4.43;2.80;;;12.30;99.90;;;;;;5062165;28;20310;-59
2023/10/08 03:12:46;;;;;;;5.27;3.07;;;12.30;99.90;;;;;;5058865;28;20633;-59
2023/10/08 03:15:28;;;;;;;5.20;2.70;;;12.20;99.90;;;;;;5058724;28;20644;-59
2023/10/08 03:17:57;;;;;;;5.83;3.00;;;12.10;99.90;;;;;;5055422;28;20215;-59
2023/10/08 03:20:38;;;;;;;6.30;3.10;;;12.10;99.90;;;;;;5065645;28;20240;-59
2023/10/08 03:23:11;;;;;;;4.13;2.67;;;12.10;99.90;;;;;;5068667;28;20303;-59
2023/10/08 03:25:41;;;;;;;8.97;2.90;;;12.00;99.90;;;;;;5063748;28;20632;-57
2023/10/08 03:28:12;;;;;;;6.53;2.80;;;12.10;99.90;;;;;;5062161;28;20813;-59
2023/10/08 03:30:49;;;;;;;5.17;2.63;;;12.10;99.90;;;;;;5070795;28;20307;-59
2023/10/08 03:33:22;;;;;;;8.23;2.87;;;12.10;99.90;;;;;;5069838;28;20232;-58
2023/10/08 03:35:52;;;;;;;4.57;2.77;;;12.10;99.90;;;;;;5057942;28;20254;-60
2023/10/08 03:38:22;;;;;;;4.67;3.03;;;12.10;99.90;;;;;;5065659;28;20201;-59
2023/10/08 03:40:50;;;;;;;5.87;2.47;;;12.10;99.90;;;;;;5057831;28;20232;-58
2023/10/08 03:43:44;;;;;;;5.43;2.93;;;12.10;99.90;;;;;;5065650;28;20239;-58
2023/10/08 03:46:14;;;;;;;4.70;2.90;;;12.10;99.90;;;;;;5059864;28;20286;-58
2023/10/08 03:48:44;;;;;;;5.23;2.73;;;12.10;99.90;;;;;;5062825;28;20615;-58
2023/10/08 03:51:11;;;;;;;8.73;2.90;;;12.20;99.90;;;;;;5061858;28;20599;-58
2023/10/08 03:53:57;;;;;;;5.77;2.73;;;12.10;99.90;;;;;;5064184;28;20296;-58
2023/10/08 03:56:24;;;;;;;8.00;3.00;;;12.10;99.90;;;;;;5065255;28;20240;-59
2023/10/08 03:58:53;;;;;;;4.63;2.80;;;12.00;99.90;;;;;;5061687;28;20216;-59
2023/10/08 04:01:24;;;;;;;5.37;2.70;;;12.00;99.90;;;;;;5061775;28;20691;-58
2023/10/08 04:03:58;;;;;;;4.77;2.80;;;12.00;99.90;;;;;;5053383;28;20718;-57
2023/10/08 04:06:30;;;;;;;8.57;2.93;;;12.00;99.90;;;;;;5062221;28;20236;-58
2023/10/08 04:09:16;;;;;;;7.40;3.10;;;12.00;99.90;;;;;;5065224;28;20211;-58
2023/10/08 04:11:51;;;;;;;3.80;2.40;;;12.00;99.90;;;;;;5062320;28;20606;-59
2023/10/08 04:14:19;;;;;;;6.87;2.83;;;11.90;99.90;;;;;;5069095;28;20237;-58
2023/10/08 04:16:51;;;;;;;9.20;3.23;;;12.00;99.90;;;;;;5061585;28;20206;-59
2023/10/08 04:19:19;;;;;;;5.50;3.00;;;12.00;99.90;;;;;;5068954;28;20205;-59
2023/10/08 04:21:53;;;;;;;5.17;3.00;;;12.00;99.90;;;;;;5061524;28;20229;-59
2023/10/08 04:24:28;;;;;;;7.07;2.97;;;12.00;99.90;;;;;;5069102;28;20204;-58
2023/10/08 04:26:57;;;;;;;5.03;3.10;;;12.00;99.90;;;;;;5064420;28;20203;-59
2023/10/08 04:29:24;;;;;;;5.47;2.83;;;12.00;99.90;;;;;;5064329;28;20200;-59
2023/10/08 04:32:01;;;;;;;6.30;2.70;;;12.00;99.90;;;;;;5061274;28;20664;-60
2023/10/08 04:34:29;;;;;;;7.03;2.97;;;12.00;99.90;;;;;;5069465;28;20204;-59
2023/10/08 04:37:00;;;;;;;4.93;2.77;;;12.00;99.90;;;;;;5060879;28;20671;-59
2023/10/08 04:39:32;;;;;;;6.37;2.80;;;12.00;99.90;;;;;;5069351;28;20209;-59
2023/10/08 04:42:05;;;;;;;6.73;2.80;;;11.90;99.90;;;;;;5065939;28;20311;-59
2023/10/08 04:44:33;;;;;;;4.87;2.80;;;11.90;99.90;;;;;;5063412;28;20263;-59
2023/10/08 04:47:06;;;;;;;4.57;2.60;;;11.90;99.90;;;;;;5060608;28;20275;-58
2023/10/08 04:49:34;;;;;;;4.83;2.77;;;11.80;99.90;;;;;;5068802;28;20213;-59
2023/10/08 04:52:08;;;;;;;4.27;2.70;;;11.80;99.90;;;;;;5061126;28;20263;-59
2023/10/08 04:54:40;;;;;;;5.43;2.70;;;11.70;99.90;;;;;;5069130;28;20671;-59
2023/10/08 04:57:14;;;;;;;5.50;2.80;;;11.80;99.90;;;;;;5066478;28;20213;-58
2023/10/08 04:59:42;;;;;;;5.00;2.80;;;11.90;99.90;;;;;;5061850;28;20263;-59
2023/10/08 05:02:19;;;;;;;6.30;2.87;;;11.90;99.90;;;;;;5060597;28;20234;-59
2023/10/08 05:04:55;;;;;;;5.83;2.70;;;11.90;99.90;;;;;;5069107;28;20210;-59
2023/10/08 05:07:40;;;;;;;6.67;2.93;;;11.90;99.90;;;;;;5068322;28;20693;-59
2023/10/08 05:10:32;;;;;;;5.67;2.90;;;11.90;99.90;;;;;;5052327;28;20244;-59
2023/10/08 05:13:16;;;;;;;5.87;2.83;;;11.90;99.90;;;;;;5057371;28;20201;-59
2023/10/08 05:15:49;;;;;;;6.17;2.77;;;11.90;99.90;;;;;;5061662;28;20291;-59
2023/10/08 05:18:37;;;;;;;6.90;2.60;;;11.90;99.90;;;;;;5067251;28;20697;-58
2023/10/08 05:21:25;;;;;;;5.63;3.20;;;11.80;99.90;;;;;;5051778;28;20236;-57
2023/10/08 05:24:12;;;;;;;6.40;2.90;;;11.80;99.90;;;;;;5063322;28;20789;-58
2023/10/08 05:26:49;;;;;;;4.80;2.80;;;11.80;99.90;;;;;;5061866;28;20228;-58
2023/10/08 05:29:52;;;;;;;6.40;3.50;;;11.70;99.90;;;;;;5066980;28;20208;-59
2023/10/08 05:32:37;;;;;;;5.80;2.93;;;11.80;99.90;;;;;;5059884;28;20633;-58
2023/10/08 05:38:02;;;;;;;5.03;2.97;;;11.80;99.90;;;;;;5063260;28;20591;-59
2023/10/08 05:40:54;;;;;;;7.93;3.10;;;11.80;99.90;;;;;;5062585;28;20221;-58
2023/10/08 05:43:47;;;;;;;7.90;3.73;;;11.80;99.90;;;;;;5067513;28;20216;-56
2023/10/08 05:46:39;;;;;;;6.33;3.30;;;11.80;99.90;;;;;;5057617;28;20295;-59
2023/10/08 05:49:26;;;;;;;6.47;3.23;;;11.80;99.90;;;;;;5065746;28;20202;-58
2023/10/08 05:55:09;;;;;;;4.10;2.80;;;11.80;99.90;;;;;;5052044;28;20227;-60
2023/10/08 05:57:38;;;;;;;7.83;2.83;;;11.80;99.90;;;;;;5060429;28;20650;-61
2023/10/08 06:00:45;;;;;;;7.93;3.00;;;11.90;99.90;;;;;;5063334;28;20220;-59
2023/10/08 06:03:11;;;;;;;7.37;3.20;;;11.90;99.90;;;;;;5056577;28;20224;-61
2023/10/08 06:05:47;;;;;;;6.90;3.50;;;12.00;99.90;;;;;;5060939;28;20217;-55
2023/10/08 06:08:21;;;;;;;9.90;4.73;;;12.10;99.90;;;;;;5065948;28;20215;-56
2023/10/08 06:10:56;;;;;;;6.73;3.93;;;12.20;99.90;;;;;;5060143;28;20244;-56
2023/10/08 06:13:29;;;;;;;11.63;4.10;;;12.30;99.90;;;;;;5067327;28;20222;-56
2023/10/08 06:16:08;;;;;;;5.83;3.47;;;12.50;99.90;;;;;;5051272;28;20306;-56
2023/10/08 06:18:34;;;;;;;8.27;3.60;;;12.70;99.90;;;;;;5060267;28;20206;-56
2023/10/08 06:21:08;;;;;;;7.10;3.33;;;12.80;99.90;;;;;;5062717;28;20232;-56
2023/10/08 06:23:37;;;;;;;7.77;3.53;;;13.20;99.90;;;;;;5061889;28;20205;-56
2023/10/08 06:26:13;;;;;;;7.73;3.27;;;12.90;99.90;;;;;;5059496;28;20206;-55
2023/10/08 06:28:42;;;;;;;6.87;3.40;;;13.00;99.90;;;;;;5067274;28;20663;-57
2023/10/08 06:31:12;;;;;;;7.77;3.23;;;13.00;99.90;;;;;;5059153;28;20232;-55
2023/10/08 06:33:40;;;;;;;5.73;2.90;;;13.00;99.90;;;;;;5060720;28;20220;-56
2023/10/08 06:36:13;;;;;;;6.50;3.23;;;13.00;99.90;;;;;;5062734;28;20211;-55
2023/10/08 06:38:41;;;;;;;6.53;3.10;;;13.20;99.90;;;;;;5060884;28;20205;-56
2023/10/08 06:41:15;;;;;;;9.93;3.17;;;13.40;99.90;;;;;;5058870;28;20221;-57
2023/10/08 06:43:43;;;;;;;5.03;2.73;;;13.60;99.90;;;;;;5067299;28;20200;-57
2023/10/08 06:46:12;;;;;;;5.40;2.90;;;13.70;99.90;;;;;;5059113;28;20202;-57
2023/10/08 06:48:42;;;;;;;6.43;3.07;;;13.80;99.90;;;;;;5060476;28;20201;-56
2023/10/08 06:51:12;;;;;;;7.37;3.57;;;13.90;99.90;;;;;;5062299;28;20319;-56
2023/10/08 06:53:41;;;;;;;6.13;3.37;;;13.90;99.90;;;;;;5062377;28;20209;-56
2023/10/08 06:56:09;;;;;;;7.37;3.73;;;14.00;99.90;;;;;;5062395;28;20215;-57
2023/10/08 06:58:36;;;;;;;7.27;3.60;;;14.20;99.90;;;;;;5061013;28;20227;-57
2023/10/08 07:01:05;;;;;;;6.23;4.07;;;14.30;99.90;;;;;;5058958;28;20232;-57
2023/10/08 07:03:33;;;;;;;6.10;3.00;;;14.40;99.90;;;;;;5059321;28;20221;-57
2023/10/08 07:06:02;;;;;;;5.23;3.00;;;14.60;99.90;;;;;;5062362;28;20233;-57
2023/10/08 07:08:31;;;;;;;5.83;2.70;;;14.70;99.90;;;;;;5062000;28;20209;-59
2023/10/08 07:11:05;;;;;;;7.37;3.00;;;14.60;99.90;;;;;;5058639;28;20240;-56
2023/10/08 07:13:32;;;;;;;7.57;3.80;;;14.60;99.90;;;;;;5066957;28;20212;-56
2023/10/08 07:16:00;;;;;;;6.97;3.27;;;14.80;99.90;;;;;;5058629;28;20233;-57
2023/10/08 07:18:27;;;;;;;7.17;3.20;;;14.90;99.90;;;;;;5058455;28;20701;-56
2023/10/08 07:21:00;;;;;;;5.93;3.42;;;15.00;99.90;;;;;;5066790;28;20221;-55
2023/10/08 07:23:29;;;;;;;41.90;33.77;;;15.20;99.90;;;;;;5058520;28;20309;-56
2023/10/08 07:26:01;;;;;;;11.07;6.63;;;15.50;99.90;;;;;;5053686;28;20211;-55
2023/10/08 07:28:30;;;;;;;11.03;5.67;;;15.70;99.90;;;;;;5061961;28;20309;-55
2023/10/08 07:30:57;;;;;;;12.25;4.65;;;15.90;99.90;;;;;;5062124;28;20270;-55
2023/10/08 07:33:27;;;;;;;5.65;3.42;;;16.10;99.90;;;;;;5062102;28;20208;-55
2023/10/08 07:35:59;;;;;;;5.13;3.28;;;16.30;99.90;;;;;;5053695;28;20201;-56
2023/10/08 07:38:29;;;;;;;7.32;3.88;;;16.50;99.90;;;;;;5061690;28;20201;-55
2023/10/08 07:40:57;;;;;;;8.32;3.33;;;16.60;99.90;;;;;;5066455;28;20225;-55
2023/10/08 07:43:24;;;;;;;6.03;3.58;;;16.60;99.90;;;;;;5058546;28;20225;-55
2023/10/08 07:45:54;;;;;;;7.43;4.15;;;16.60;99.90;;;;;;5066614;28;20209;-56
2023/10/08 07:48:22;;;;;;;5.03;3.23;;;16.60;99.90;;;;;;5058191;28;20300;-56
2023/10/08 07:50:50;;;;;;;6.85;3.75;;;16.80;99.90;;;;;;5060811;28;20307;-55
2023/10/08 07:53:20;;;;;;;7.72;3.85;;;16.90;99.90;;;;;;5063347;28;20205;-55
2023/10/08 07:55:48;;;;;;;6.93;4.15;;;16.90;99.90;;;;;;5060163;28;20676;-56
2023/10/08 07:58:19;;;;;;;8.13;5.10;;;16.90;99.90;;;;;;5061707;28;20618;-57
2023/10/08 08:00:52;;;;;;;5.65;3.85;;;17.10;99.90;;;;;;5059093;28;20250;-56
2023/10/08 08:03:21;;;;;;;5.25;3.33;;;17.00;99.90;;;;;;5064918;28;20217;-57
2023/10/08 08:05:52;;;;;;;6.07;3.50;;;16.80;99.90;;;;;;5062227;28;20561;-56
2023/10/08 08:08:22;;;;;;;8.75;5.47;;;16.70;99.90;;;;;;5068117;28;20263;-57
2023/10/08 08:10:50;;;;;;;7.28;3.80;;;16.70;99.90;;;;;;5062388;28;20232;-57
2023/10/08 08:13:20;;;;;;;6.80;3.20;;;16.90;99.90;;;;;;5062047;28;20209;-57
2023/10/08 08:15:50;;;;;;;5.32;3.53;;;16.70;99.90;;;;;;5063638;28;20635;-56
2023/10/08 08:18:22;;;;;;;7.85;3.50;;;16.80;99.90;;;;;;5065179;28;20217;-56
2023/10/08 08:20:50;;;;;;;7.90;3.08;;;17.10;99.90;;;;;;5062229;28;20315;-57
2023/10/08 08:23:17;;;;;;;5.35;3.55;;;17.30;99.90;;;;;;5061403;28;20329;-57
2023/10/08 08:26:05;;;;;;;8.10;3.47;;;17.50;99.90;;;;;;5063097;28;20202;-58
2023/10/08 08:28:32;;;;;;;8.70;3.67;;;17.70;99.90;;;;;;5064545;28;20217;-57
2023/10/08 08:31:04;;;;;;;5.68;3.67;;;17.90;99.90;;;;;;5061512;28;20225;-57
2023/10/08 08:33:52;;;;;;;6.90;3.42;;;18.20;99.90;;;;;;5069448;28;20737;-57
2023/10/08 08:36:19;;;;;;;8.93;3.60;;;18.50;99.90;;;;;;5061037;28;20262;-56
2023/10/08 08:38:47;;;;;;;5.28;3.55;;;18.80;99.90;;;;;;5062667;28;20592;-56
2023/10/08 08:41:17;;;;;;;6.95;3.45;;;19.10;99.90;;;;;;5064576;28;20667;-57
2023/10/08 08:43:45;;;;;;;7.50;3.42;;;19.30;99.90;;;;;;5062704;28;20306;-56
2023/10/08 08:46:13;;;;;;;8.38;3.70;;;19.40;99.90;;;;;;5061144;28;20284;-57
2023/10/08 08:48:41;;;;;;;7.97;3.33;;;19.60;99.90;;;;;;5061782;28;20209;-57
2023/10/08 08:51:09;;;;;;;6.47;3.38;;;19.70;99.90;;;;;;5064256;28;20733;-57
2023/10/08 08:53:37;;;;;;;9.48;5.10;;;19.90;99.90;;;;;;5063209;28;20295;-56
2023/10/08 08:56:09;;;;;;;8.18;5.45;;;20.10;99.90;;;;;;5060621;28;20217;-57
2023/10/08 08:58:36;;;;;;;8.05;4.45;;;20.30;99.90;;;;;;5068510;28;20215;-57
2023/10/08 09:01:06;;;;;;;6.82;4.20;;;20.40;99.90;;;;;;5060421;28;20355;-56
2023/10/08 09:03:32;;;;;;;8.25;4.07;;;20.50;99.90;;;;;;5060242;28;20710;-56
2023/10/08 09:06:00;;;;;;;8.75;3.63;;;20.80;99.90;;;;;;5063465;28;20677;-57
2023/10/08 09:08:29;;;;;;;6.05;3.08;;;21.00;99.90;;;;;;5063975;28;20212;-57
2023/10/08 09:11:01;;;;;;;12.85;9.00;;;21.30;99.90;;;;;;5060607;28;20255;-57
2023/10/08 09:13:28;;;;;;;5.75;4.00;;;21.50;99.90;;;;;;5068110;28;20205;-58
2023/10/08 09:16:03;;;;;;;7.88;3.60;;;21.80;99.90;;;;;;5062392;28;20201;-57
2023/10/08 09:18:32;;;;;;;7.10;4.32;;;22.10;99.90;;;;;;5063305;28;20235;-58
2023/10/08 09:21:10;;;;;;;5.03;2.97;;;22.50;99.90;;;;;;5055484;28;20246;-59
2023/10/08 09:23:43;;;;;;;8.70;5.13;;;22.90;99.90;;;;;;5062616;28;20257;-58
2023/10/08 09:26:13;;;;;;;6.63;3.60;;;23.40;99.90;;;;;;5065203;28;20638;-61
2023/10/08 09:28:40;;;;;;;7.30;3.40;;;23.70;99.90;;;;;;5062152;28;20642;-58
2023/10/08 09:31:11;;;;;;;6.63;3.00;;;24.00;99.90;;;;;;5064559;28;20232;-58
2023/10/08 09:33:38;;;;;;;6.53;3.33;;;24.30;99.90;;;;;;5062433;28;20216;-59
2023/10/08 09:36:07;;;;;;;8.10;3.10;;;24.50;99.90;;;;;;5059596;28;20252;-57
2023/10/08 09:38:34;;;;;;;7.22;3.90;;;24.70;99.90;;;;;;5059414;28;20242;-58
2023/10/08 09:41:02;;;;;;;6.45;3.38;;;24.90;99.90;;;;;;5063139;28;20247;-55
2023/10/08 09:43:31;;;;;;;9.07;5.43;;;25.00;99.90;;;;;;5063280;28;20256;-55
2023/10/08 09:46:09;;;;;;;5.30;2.95;;;25.00;99.90;;;;;;5055138;28;20201;-55
2023/10/08 09:48:38;;;;;;;5.55;3.25;;;25.00;99.90;;;;;;5062599;28;20204;-57
2023/10/08 09:51:07;;;;;;;10.13;3.60;;;24.90;99.90;;;;;;5064056;28;20702;-55
2023/10/08 09:53:44;;;;;;;6.82;3.13;;;24.90;99.90;;;;;;5063224;28;20197;-60
2023/10/08 09:56:15;;;;;;;5.18;3.38;;;24.90;99.90;;;;;;5063026;28;20211;-55
2023/10/08 09:58:44;;;;;;;6.22;2.88;;;25.10;99.90;;;;;;5061819;28;20233;-56
2023/10/08 10:01:11;;;;;;;8.50;3.20;;;25.00;99.90;;;;;;5059567;28;20248;-55
2023/10/08 10:03:39;;;;;;;5.28;3.40;;;25.00;99.90;;;;;;5059828;28;20253;-55
2023/10/08 10:06:12;;;;;;;10.25;4.40;;;25.10;99.90;;;;;;5062835;28;20201;-57
2023/10/08 10:08:38;;;;;;;7.13;3.13;;;25.20;99.90;;;;;;5062129;28;20212;-55
2023/10/08 10:11:06;;;;;;;7.70;3.90;;;25.00;99.90;;;;;;5059447;28;20821;-54
2023/10/08 10:13:36;;;;;;;5.28;3.20;;;24.60;99.90;;;;;;5059461;28;20198;-54
2023/10/08 10:16:07;;;;;;;7.57;3.00;;;24.60;99.90;;;;;;5059120;28;20209;-55
2023/10/08 10:18:34;;;;;;;7.30;3.35;;;24.50;99.90;;;;;;5067741;28;20209;-54
2023/10/08 10:21:28;;;;;;;8.52;3.80;;;24.30;99.90;;;;;;5062835;28;20267;-54
2023/10/08 10:23:56;;;;;;;22.20;10.25;;;24.20;99.90;;;;;;5059926;28;20253;-56
2023/10/08 10:26:30;;;;;;;7.28;3.20;;;24.30;99.90;;;;;;5059282;28;20206;-56
2023/10/08 10:29:19;;;;;;;8.23;3.35;;;24.50;99.90;;;;;;5066983;28;20217;-56
2023/10/08 10:31:50;;;;;;;7.88;3.75;;;24.50;99.90;;;;;;5060651;28;20229;-55
2023/10/08 10:34:18;;;;;;;5.90;3.35;;;24.50;99.90;;;;;;5062820;28;20240;-56
2023/10/08 10:36:48;;;;;;;9.93;3.70;;;24.50;99.90;;;;;;5061082;28;20205;-56
2023/10/08 10:39:16;;;;;;;5.47;3.15;;;24.60;99.90;;;;;;5059164;28;20210;-55
2023/10/08 10:41:44;;;;;;;6.90;3.38;;;24.70;99.90;;;;;;5059910;28;20225;-55
2023/10/08 10:44:13;;;;;;;5.10;3.47;;;24.70;99.90;;;;;;5062406;28;20228;-56
2023/10/08 10:46:42;;;;;;;29.75;13.05;;;24.60;99.90;;;;;;5061785;28;20215;-55
2023/10/08 10:49:21;;;;;;;10.00;4.72;;;24.60;99.90;;;;;;5058734;28;20285;-56
2023/10/08 10:51:48;;;;;;;6.32;3.63;;;24.50;99.90;;;;;;5067380;28;20232;-56
2023/10/08 10:54:23;;;;;;;5.15;3.35;;;24.40;99.90;;;;;;5059098;28;20391;-56
2023/10/08 10:57:03;;;;;;;8.82;4.00;;;24.30;99.90;;;;;;5066927;28;20349;-56
2023/10/08 10:59:36;;;;;;;6.68;3.35;;;24.20;99.90;;;;;;5066009;28;20204;-56
2023/10/08 11:02:07;;;;;;;8.98;4.45;;;24.20;99.90;;;;;;5054322;28;20217;-56
2023/10/08 11:04:47;;;;;;;8.50;4.30;;;24.30;99.90;;;;;;5062123;28;20231;-56
2023/10/08 11:07:15;;;;;;;5.22;3.22;;;24.50;99.90;;;;;;5058991;28;20283;-56
2023/10/08 11:09:44;;;;;;;5.43;3.25;;;24.90;99.90;;;;;;5059810;28;20213;-55
2023/10/08 11:12:14;;;;;;;7.57;2.97;;;25.30;99.90;;;;;;5062258;28;20208;-56
2023/10/08 11:14:42;;;;;;;11.27;5.15;;;25.60;99.90;;;;;;5060998;28;20702;-55
2023/10/08 11:17:16;;;;;;;9.80;4.05;;;25.80;99.90;;;;;;5058523;28;20201;-54
2023/10/08 11:19:46;;;;;;;9.32;4.28;;;26.10;99.90;;;;;;5066939;28;20682;-56
2023/10/08 11:22:16;;;;;;;6.22;4.13;;;26.30;99.80;;;;;;5058608;28;20209;-55
2023/10/08 11:24:47;;;;;;;6.13;3.33;;;26.60;98.90;;;;;;5059189;28;20245;-55
2023/10/08 11:27:17;;;;;;;8.40;3.70;;;26.80;98.40;;;;;;5062076;28;20205;-56
2023/10/08 11:29:46;;;;;;;8.50;3.65;;;27.00;98.10;;;;;;5060889;28;20644;-55
2023/10/08 11:32:15;;;;;;;6.75;2.92;;;27.10;97.30;;;;;;5058487;28;20212;-55
2023/10/08 11:34:42;;;;;;;7.80;4.30;;;27.10;97.00;;;;;;5059345;28;20263;-55
2023/10/08 11:37:20;;;;;;;11.57;6.47;;;26.90;97.20;;;;;;5061988;28;20251;-56
2023/10/08 11:39:47;;;;;;;6.93;4.28;;;26.90;97.00;;;;;;5061937;28;20259;-55
2023/10/08 11:42:40;;;;;;;8.40;3.92;;;26.90;97.00;;;;;;5062507;28;20209;-55
2023/10/08 11:45:18;;;;;;;6.47;3.38;;;26.80;96.70;;;;;;5058196;28;20269;-56
2023/10/08 11:47:45;;;;;;;6.50;3.25;;;26.80;96.60;;;;;;5064167;28;20219;-56
2023/10/08 11:50:18;;;;;;;8.65;3.58;;;26.70;96.40;;;;;;5061999;28;20318;-56
2023/10/08 11:52:47;;;;;;;6.13;3.05;;;26.60;96.70;;;;;;5063610;28;20259;-56
2023/10/08 11:55:18;;;;;;;4.00;2.67;;;26.40;96.90;;;;;;5065380;28;20296;-56
2023/10/08 11:57:48;;;;;;;7.70;3.40;;;26.40;96.90;;;;;;5064206;28;20239;-56
2023/10/08 12:00:19;;;;;;;9.23;3.42;;;26.30;96.50;;;;;;5067081;28;20225;-56
2023/10/08 12:02:46;;;;;;;5.95;3.42;;;26.00;96.90;;;;;;5063935;28;20235;-56
2023/10/08 12:05:18;;;;;;;6.30;3.33;;;25.90;97.50;;;;;;5061726;28;20217;-56
2023/10/08 12:07:47;;;;;;;7.10;3.42;;;25.90;97.60;;;;;;5069885;28;20370;-56
2023/10/08 12:10:16;;;;;;;7.53;4.00;;;26.00;97.20;;;;;;5061920;28;20225;-57
2023/10/08 12:12:45;;;;;;;5.38;3.80;;;26.00;97.40;;;;;;5062502;28;20288;-56
2023/10/08 12:15:19;;;;;;;9.68;3.40;;;26.00;97.60;;;;;;5065655;28;20277;-56
2023/10/08 12:18:08;;;;;;;6.38;3.13;;;26.10;97.40;;;;;;5063729;28;20216;-56
2023/10/08 12:20:34;;;;;;;4.60;3.15;;;26.30;96.90;;;;;;5069233;28;20220;-56
2023/10/08 12:23:03;;;;;;;7.32;3.33;;;26.50;96.60;;;;;;5065170;28;20408;-56
2023/10/08 12:25:32;;;;;;;8.85;3.40;;;26.60;96.20;;;;;;5065119;28;20205;-56
2023/10/08 12:28:01;;;;;;;5.35;3.20;;;26.60;96.20;;;;;;5061976;28;20210;-56
2023/10/08 12:30:31;;;;;;;9.30;3.53;;;26.60;95.90;;;;;;5061582;28;20229;-56
2023/10/08 12:32:58;;;;;;;6.80;3.53;;;26.60;95.80;;;;;;5063802;28;20236;-56
2023/10/08 12:35:25;;;;;;;6.55;3.22;;;26.60;95.80;;;;;;5064748;28;20572;-56
2023/10/08 12:37:53;;;;;;;5.53;3.45;;;26.60;95.30;;;;;;5062596;28;20209;-56
2023/10/08 12:40:23;;;;;;;8.25;3.50;;;26.60;95.30;;;;;;5061313;28;20232;-56
2023/10/08 12:42:50;;;;;;;10.48;3.67;;;26.60;95.30;;;;;;5062476;28;20210;-56
2023/10/08 12:45:20;;;;;;;8.32;3.50;;;26.60;95.40;;;;;;5063955;28;20674;-56
2023/10/08 12:47:49;;;;;;;6.38;3.63;;;26.60;95.20;;;;;;5062841;28;20212;-57
2023/10/08 12:50:16;;;;;;;6.00;3.17;;;26.50;95.10;;;;;;5060567;28;20295;-56
2023/10/08 12:52:47;;;;;;;9.98;4.07;;;26.30;95.90;;;;;;5060877;28;20286;-56
2023/10/08 12:55:14;;;;;;;7.20;3.70;;;26.30;95.70;;;;;;5064430;28;20205;-56
2023/10/08 12:57:45;;;;;;;8.00;3.20;;;26.10;95.80;;;;;;5064465;28;20208;-56
2023/10/08 13:00:13;;;;;;;8.00;3.50;;;26.20;95.50;;;;;;5066131;28;20229;-56
2023/10/08 13:02:42;;;;;;;6.43;3.60;;;26.20;96.00;;;;;;5064375;28;20216;-56
2023/10/08 13:05:15;;;;;;;5.80;3.30;;;26.20;95.80;;;;;;5061172;28;20309;-56
2023/10/08 13:07:44;;;;;;;5.78;3.42;;;26.00;95.90;;;;;;5069075;28;20580;-56
2023/10/08 13:10:14;;;;;;;8.07;3.35;;;25.90;95.90;;;;;;5061169;28;20236;-56
2023/10/08 13:12:42;;;;;;;8.18;3.20;;;25.90;96.40;;;;;;5061105;28;20274;-55
2023/10/08 13:15:10;;;;;;;7.00;3.72;;;25.80;96.20;;;;;;5064641;28;20212;-55